Time;durP1;ratioP1;P1;durP2;ratioP2;P2;SDS_P1;SDS_P2;PMS_P1;PMS_P2;Temp;Humidity;BMP_temperature;BMP_pressure;BME280_temperature;BME280_humidity;BME280_pressure;Samples;Min_cycle;Max_cycle;Signal;HPM_P1;HPM_P2
2023/12/26 00:00:55;;;;;;;0.82;0.30;;;;;;;9.26;100.00;100241.22;7400160;19;19947;-71
2023/12/26 00:03:23;;;;;;;2.47;0.40;;;;;;;9.27;100.00;100248.28;7400939;19;19919;-71
2023/12/26 00:05:52;;;;;;;0.88;0.28;;;;;;;9.29;100.00;100238.16;7399769;19;19991;-71
2023/12/26 00:08:21;;;;;;;1.23;0.45;;;;;;;9.29;100.00;100232.78;7401051;19;19966;-71
2023/12/26 00:10:49;;;;;;;0.77;0.40;;;;;;;9.29;100.00;100224.72;7401404;19;20285;-71
2023/12/26 00:13:21;;;;;;;1.33;0.40;;;;;;;9.30;100.00;100212.97;7401459;19;19986;-70
2023/12/26 00:15:51;;;;;;;0.70;0.30;;;;;;;9.31;100.00;100206.56;7401366;19;19918;-71
2023/12/26 00:18:19;;;;;;;1.65;0.50;;;;;;;9.33;100.00;100199.13;7400357;19;20332;-71
2023/12/26 00:20:48;;;;;;;0.45;0.20;;;;;;;9.30;100.00;100213.78;7401608;19;19915;-71
2023/12/26 00:23:17;;;;;;;1.30;0.50;;;;;;;9.32;100.00;100200.19;7400232;19;19921;-71
2023/12/26 00:25:46;;;;;;;1.08;0.30;;;;;;;9.33;100.00;100185.69;7401977;19;20382;-70
2023/12/26 00:28:17;;;;;;;0.52;0.25;;;;;;;9.33;100.00;100202.66;7400400;19;19915;-71
2023/12/26 00:30:49;;;;;;;0.75;0.30;;;;;;;9.35;100.00;100186.38;7401213;19;19992;-71
2023/12/26 00:33:17;;;;;;;0.35;0.25;;;;;;;9.35;100.00;100186.38;7399667;19;19925;-71
2023/12/26 00:35:46;;;;;;;1.25;0.30;;;;;;;9.34;100.00;100188.22;7400817;19;19974;-71
2023/12/26 00:38:35;;;;;;;1.17;0.40;;;;;;;9.34;100.00;100190.06;7399421;19;19951;-71
2023/12/26 00:41:03;;;;;;;2.20;0.32;;;;;;;9.34;100.00;100182.84;7400207;19;19918;-71
2023/12/26 00:43:32;;;;;;;0.65;0.32;;;;;;;9.36;100.00;100179.97;7400536;19;19919;-71
2023/12/26 00:46:04;;;;;;;1.88;0.30;;;;;;;9.37;100.00;100189.69;7399738;19;19915;-71
2023/12/26 00:48:32;;;;;;;0.40;0.30;;;;;;;9.37;100.00;100178.94;7399578;19;19918;-71
2023/12/26 00:51:01;;;;;;;0.35;0.20;;;;;;;9.37;100.00;100178.94;7400045;19;19918;-71
2023/12/26 00:53:30;;;;;;;0.40;0.20;;;;;;;9.37;100.00;100192.38;7400392;19;19917;-71
2023/12/26 00:55:58;;;;;;;0.40;0.22;;;;;;;9.36;100.00;100193.41;7399340;19;19946;-71
2023/12/26 00:58:27;;;;;;;1.10;0.30;;;;;;;9.37;100.00;100187.00;7399421;19;19922;-71
2023/12/26 01:00:56;;;;;;;1.85;0.47;;;;;;;9.36;100.00;100204.97;7399430;19;19911;-71
2023/12/26 01:03:27;;;;;;;0.47;0.47;;;;;;;9.37;100.00;100187.84;7399945;19;19941;-71
2023/12/26 01:05:56;;;;;;;1.80;0.32;;;;;;;9.38;100.00;100215.56;7399237;19;20352;-71
2023/12/26 01:08:25;;;;;;;1.00;0.35;;;;;;;9.38;100.00;100202.94;7399152;19;20320;-71
2023/12/26 01:10:53;;;;;;;1.17;0.40;;;;;;;9.40;100.00;100200.09;7398181;19;20336;-71
2023/12/26 01:13:23;;;;;;;4.10;0.30;;;;;;;9.40;100.00;100202.78;7399107;19;19919;-71
2023/12/26 01:15:52;;;;;;;0.50;0.30;;;;;;;9.39;100.00;100196.56;7399282;19;19922;-71
2023/12/26 01:18:20;;;;;;;0.93;0.20;;;;;;;9.42;100.00;100195.34;7404264;19;19914;-71
2023/12/26 01:20:52;;;;;;;0.85;0.40;;;;;;;9.42;100.00;100198.88;7405685;19;19922;-71
2023/12/26 01:23:20;;;;;;;0.38;0.30;;;;;;;9.42;100.00;100201.56;7404071;19;19918;-71
2023/12/26 01:25:49;;;;;;;1.63;0.38;;;;;;;9.44;100.00;100204.06;7405366;19;19922;-71
2023/12/26 01:28:19;;;;;;;0.82;0.20;;;;;;;9.45;100.00;100200.34;7404471;19;19970;-71
2023/12/26 01:30:47;;;;;;;0.38;0.25;;;;;;;9.46;100.00;100205.53;7404600;19;20352;-71
2023/12/26 01:33:16;;;;;;;0.63;0.40;;;;;;;9.47;100.00;100201.00;7404477;19;19922;-71
2023/12/26 01:35:45;;;;;;;0.20;0.10;;;;;;;9.47;100.00;100198.31;7404382;19;19911;-71
2023/12/26 01:38:16;;;;;;;0.40;0.28;;;;;;;9.45;100.00;100201.19;7403895;19;20463;-71
2023/12/26 01:40:45;;;;;;;2.25;0.20;;;;;;;9.43;100.00;100216.69;7404636;19;19919;-71
2023/12/26 01:43:14;;;;;;;0.98;0.32;;;;;;;9.42;100.00;100249.94;7405113;19;19927;-71
2023/12/26 01:45:42;;;;;;;1.95;0.40;;;;;;;9.42;100.00;100235.66;7404348;19;19919;-71
2023/12/26 01:48:13;;;;;;;0.82;0.30;;;;;;;9.43;100.00;100213.16;7404533;19;19915;-71
2023/12/26 01:50:42;;;;;;;1.77;0.25;;;;;;;9.43;100.00;100218.53;7404197;19;19935;-71
2023/12/26 01:53:11;;;;;;;2.00;0.40;;;;;;;9.44;100.00;100230.94;7405041;19;19930;-71
2023/12/26 01:55:43;;;;;;;1.90;0.50;;;;;;;9.43;100.00;100230.13;7404307;19;19923;-71
2023/12/26 01:58:12;;;;;;;;;;;;;;;9.40;100.00;100243.09;7407638;19;20371;-71
2023/12/26 02:00:41;;;;;;;2.78;0.50;;;;;;;9.45;100.00;100232.59;7403244;19;20018;-71
2023/12/26 02:03:10;;;;;;;1.77;0.40;;;;;;;9.46;100.00;100250.41;7404339;19;19955;-70
2023/12/26 02:05:40;;;;;;;1.38;0.40;;;;;;;9.47;100.00;100255.59;7403632;19;20340;-71
2023/12/26 02:08:10;;;;;;;2.28;0.43;;;;;;;9.46;100.00;100256.63;7403786;19;19929;-71
2023/12/26 02:10:38;;;;;;;4.05;0.50;;;;;;;9.50;100.00;100262.47;7404977;19;20385;-71
2023/12/26 02:13:10;;;;;;;3.78;0.50;;;;;;;9.51;100.00;100266.81;7404917;19;20339;-71
2023/12/26 02:15:39;;;;;;;1.05;0.40;;;;;;;9.49;100.00;100268.88;7402759;19;20268;-71
2023/12/26 02:18:08;;;;;;;2.17;0.32;;;;;;;9.52;100.00;100252.38;7404361;19;19914;-71
2023/12/26 02:20:37;;;;;;;1.80;0.40;;;;;;;9.52;100.00;100252.38;7403499;19;19927;-71
2023/12/26 02:23:28;;;;;;;4.70;0.70;;;;;;;9.52;100.00;100280.09;7401375;19;19948;-71
2023/12/26 02:26:00;;;;;;;2.65;0.52;;;;;;;9.54;100.00;100275.34;7404409;19;19918;-71
2023/12/26 02:28:29;;;;;;;3.85;0.50;;;;;;;9.53;100.00;100281.75;7401274;19;19922;-70
2023/12/26 02:31:19;;;;;;;6.18;1.27;;;;;;;9.57;100.00;100295.69;7402496;19;19951;-70
2023/12/26 02:33:48;;;;;;;6.75;0.70;;;;;;;9.57;100.00;100290.31;7403243;19;19934;-70
2023/12/26 02:36:17;;;;;;;5.20;1.10;;;;;;;9.57;100.00;100301.06;7403353;19;19918;-70
2023/12/26 02:38:46;;;;;;;8.73;0.70;;;;;;;9.54;100.00;100296.03;7403601;19;20244;-70
2023/12/26 02:41:17;;;;;;;7.13;1.70;;;;;;;9.55;100.00;100292.31;7402829;19;19919;-71
2023/12/26 02:43:46;;;;;;;3.63;0.60;;;;;;;9.55;100.00;100290.47;7404028;19;20013;-71
2023/12/26 02:46:15;;;;;;;5.63;0.80;;;;;;;9.55;100.00;100286.94;7403398;19;19914;-70
2023/12/26 02:48:43;;;;;;;6.57;1.88;;;;;;;9.57;100.00;100295.69;7403222;19;19929;-71
2023/12/26 02:51:12;;;;;;;7.93;0.93;;;;;;;9.55;100.00;100298.53;7402876;19;20254;-70
2023/12/26 02:53:41;;;;;;;9.00;1.45;;;;;;;9.55;100.00;100301.22;7403845;19;20388;-71
2023/12/26 02:56:09;;;;;;;5.45;1.17;;;;;;;9.54;100.00;100320.22;7402158;19;19919;-70
2023/12/26 02:58:41;;;;;;;10.10;1.33;;;;;;;9.54;100.00;100307.63;7402751;19;19919;-71
2023/12/26 03:01:10;;;;;;;6.22;0.93;;;;;;;9.55;100.00;100320.06;7402676;19;19922;-70
2023/12/26 03:03:58;;;;;;;6.95;1.10;;;;;;;9.54;100.00;100321.06;7400529;19;19927;-70
2023/12/26 03:06:27;;;;;;;5.15;1.10;;;;;;;9.53;100.00;100313.19;7402963;19;19921;-70
2023/12/26 03:08:56;;;;;;;5.05;1.63;;;;;;;9.50;100.00;100332.38;7402082;19;19927;-70
2023/12/26 03:11:26;;;;;;;7.68;1.58;;;;;;;9.50;100.00;100335.88;7402047;19;19915;-70
2023/12/26 03:13:57;;;;;;;5.90;1.58;;;;;;;9.51;100.00;100329.50;7401754;19;19952;-70
2023/12/26 03:16:26;;;;;;;5.78;1.27;;;;;;;9.49;100.00;100334.22;7403510;19;19930;-70
2023/12/26 03:18:55;;;;;;;6.38;1.60;;;;;;;9.47;100.00;100338.97;7402303;19;19919;-70
2023/12/26 03:21:24;;;;;;;4.47;0.95;;;;;;;9.44;100.00;100333.97;7402149;19;19922;-70
2023/12/26 03:23:53;;;;;;;5.70;1.30;;;;;;;9.45;100.00;100324.84;7401876;19;20368;-70
2023/12/26 03:26:22;;;;;;;6.57;1.38;;;;;;;9.43;100.00;100326.06;7401802;19;20268;-70
2023/12/26 03:28:51;;;;;;;5.85;0.98;;;;;;;9.40;100.00;100321.91;7402629;19;19958;-70
2023/12/26 03:31:22;;;;;;;3.25;0.70;;;;;;;9.39;100.00;100330.13;7401709;19;19925;-71
2023/12/26 03:33:51;;;;;;;6.72;1.40;;;;;;;9.32;100.00;100343.44;7399389;19;19926;-70
2023/12/26 03:36:19;;;;;;;9.65;1.30;;;;;;;9.32;100.00;100329.19;7401157;19;19926;-70
2023/12/26 03:38:48;;;;;;;4.07;0.60;;;;;;;9.32;100.00;100339.97;7402573;19;19922;-71
2023/12/26 03:41:17;;;;;;;6.85;0.75;;;;;;;9.32;100.00;100348.81;7398702;19;19918;-70
2023/12/26 03:43:45;;;;;;;7.32;1.13;;;;;;;9.28;100.00;100344.00;7401754;19;19926;-70
2023/12/26 03:46:14;;;;;;;8.55;1.20;;;;;;;9.25;100.00;100344.38;7402460;19;20348;-70
2023/12/26 03:48:45;;;;;;;8.75;1.55;;;;;;;9.21;100.00;100351.97;7401779;19;19918;-70
2023/12/26 03:51:16;;;;;;;8.73;1.15;;;;;;;9.18;100.00;100360.41;7401862;19;19917;-70
2023/12/26 03:53:46;;;;;;;6.90;0.88;;;;;;;9.12;100.00;100366.47;7400834;19;19922;-70
2023/12/26 03:56:15;;;;;;;4.28;0.90;;;;;;;9.09;100.00;100373.06;7401955;19;19918;-70
2023/12/26 03:58:43;;;;;;;4.63;0.80;;;;;;;9.08;100.00;100376.75;7401488;19;19919;-70
2023/12/26 04:01:14;;;;;;;9.23;1.33;;;;;;;9.07;100.00;100380.44;7401842;19;19918;-70
2023/12/26 04:03:46;;;;;;;5.63;1.00;;;;;;;9.03;100.00;100395.25;7401347;19;19922;-70
2023/12/26 04:06:14;;;;;;;10.55;0.90;;;;;;;9.02;100.00;100393.56;7401210;19;19939;-70
2023/12/26 04:08:43;;;;;;;7.70;0.90;;;;;;;9.01;100.00;100391.09;7401579;19;19922;-70
2023/12/26 04:11:10;;;;;;;5.53;1.17;;;;;;;9.00;99.12;100392.94;7400327;19;19917;-70
2023/12/26 04:13:39;;;;;;;6.70;1.08;;;;;;;9.01;98.60;100397.31;7401383;19;19925;-70
2023/12/26 04:16:08;;;;;;;6.28;1.70;;;;;;;9.00;98.71;100402.84;7400447;19;19918;-70
2023/12/26 04:18:37;;;;;;;6.53;1.38;;;;;;;8.97;98.94;100419.31;7401367;19;19934;-70
2023/12/26 04:21:08;;;;;;;4.75;0.82;;;;;;;8.95;98.49;100414.13;7400776;19;20268;-70
2023/12/26 04:23:37;;;;;;;3.17;1.00;;;;;;;8.90;96.09;100437.16;7401745;19;19923;-70
2023/12/26 04:26:07;;;;;;;10.98;1.50;;;;;;;8.87;95.33;100419.53;7400804;19;19918;-70
2023/12/26 04:28:36;;;;;;;5.90;1.08;;;;;;;8.80;92.53;100429.31;7400341;19;19910;-71
2023/12/26 04:31:05;;;;;;;13.52;1.52;;;;;;;8.80;93.25;100423.94;7401094;19;19918;-70
2023/12/26 04:33:34;;;;;;;10.25;1.55;;;;;;;8.72;93.56;100433.88;7399700;19;19918;-70
2023/12/26 04:36:03;;;;;;;7.65;1.52;;;;;;;8.70;93.13;100435.91;7401513;19;19923;-70
2023/12/26 04:38:34;;;;;;;11.32;1.33;;;;;;;8.62;93.44;100439.50;7399788;19;19923;-70
2023/12/26 04:41:03;;;;;;;13.05;1.50;;;;;;;8.55;93.37;100435.81;7400441;19;19963;-70
2023/12/26 04:43:31;;;;;;;7.47;1.48;;;;;;;8.49;92.31;100431.16;7399833;19;20010;-71
2023/12/26 04:46:21;;;;;;;6.80;1.40;;;;;;;8.46;92.75;100451.13;7399412;19;19930;-70
2023/12/26 04:48:50;;;;;;;9.95;1.95;;;;;;;8.40;91.47;100451.00;7400035;19;19926;-70
2023/12/26 04:51:19;;;;;;;10.93;2.17;;;;;;;8.39;91.53;100452.00;7399118;19;20361;-70
2023/12/26 04:53:50;;;;;;;8.95;1.77;;;;;;;8.37;92.54;100457.53;7400092;19;19945;-70
2023/12/26 04:56:19;;;;;;;5.60;1.00;;;;;;;8.33;91.48;100453.50;7399677;19;19922;-70
2023/12/26 04:58:50;;;;;;;11.50;2.05;;;;;;;8.31;91.36;100460.06;7400568;19;19929;-70
2023/12/26 05:01:20;;;;;;;10.50;1.40;;;;;;;8.31;91.02;100458.22;7399164;19;20263;-70
2023/12/26 05:03:49;;;;;;;16.35;2.10;;;;;;;8.32;92.00;100483.22;7399520;19;19917;-70
2023/12/26 05:06:38;;;;;;;8.90;1.48;;;;;;;8.27;90.59;100470.28;7398495;19;19922;-70
2023/12/26 05:09:09;;;;;;;7.57;1.42;;;;;;;8.31;90.91;100484.22;7399035;19;19914;-70
2023/12/26 05:11:38;;;;;;;10.25;1.30;;;;;;;8.31;90.98;100481.53;7399879;19;20014;-70
2023/12/26 05:14:07;;;;;;;6.65;1.58;;;;;;;8.31;92.14;100473.50;7399824;19;19922;-70
2023/12/26 05:16:40;;;;;;;10.02;1.73;;;;;;;8.27;91.44;100497.13;7400061;19;19926;-70
2023/12/26 05:19:10;;;;;;;6.13;1.70;;;;;;;8.27;92.09;100488.22;7398582;19;19926;-70
2023/12/26 05:21:39;;;;;;;6.82;1.38;;;;;;;8.25;91.58;100483.03;7399236;19;19933;-70
2023/12/26 05:24:10;;;;;;;8.80;2.58;;;;;;;8.24;91.04;100499.31;7398063;19;19926;-70
2023/12/26 05:26:43;;;;;;;10.25;1.48;;;;;;;8.21;91.30;100495.94;7399111;19;19918;-70
2023/12/26 05:29:12;;;;;;;6.40;1.52;;;;;;;8.22;91.16;100499.47;7398107;19;19954;-70
2023/12/26 05:31:41;;;;;;;14.85;2.33;;;;;;;8.24;91.63;100497.44;7398938;19;19925;-70
2023/12/26 05:34:10;;;;;;;10.02;1.77;;;;;;;8.20;92.08;100505.00;7399285;19;19926;-70
2023/12/26 05:36:39;;;;;;;8.57;1.35;;;;;;;8.16;91.34;100503.66;7398337;19;19919;-70
2023/12/26 05:39:10;;;;;;;12.02;1.60;;;;;;;8.19;91.98;100508.72;7398255;19;19934;-70
2023/12/26 05:41:42;;;;;;;15.85;1.73;;;;;;;8.19;92.52;100519.44;7398629;19;19928;-70
2023/12/26 05:44:11;;;;;;;;;;;;;;;8.13;91.17;100530.00;7401761;19;19914;-70
2023/12/26 05:46:40;;;;;;;6.63;1.08;;;;;;;8.16;91.98;100548.44;7398304;19;19919;-70
2023/12/26 05:49:08;;;;;;;11.20;1.83;;;;;;;8.18;92.96;100539.22;7398507;19;19923;-70
2023/12/26 05:51:37;;;;;;;6.32;1.63;;;;;;;8.17;92.66;100544.75;7397280;19;19923;-70
2023/12/26 05:54:06;;;;;;;7.78;1.38;;;;;;;8.17;92.50;100563.53;7398251;19;20272;-70
2023/12/26 05:56:37;;;;;;;6.95;1.45;;;;;;;8.18;92.57;100546.44;7397299;19;19929;-70
2023/12/26 05:59:06;;;;;;;7.65;1.40;;;;;;;8.19;92.83;100548.97;7397892;19;19957;-70
2023/12/26 06:01:35;;;;;;;9.30;1.58;;;;;;;8.19;92.59;100561.53;7397340;19;19953;-70
2023/12/26 06:04:05;;;;;;;9.52;1.13;;;;;;;8.18;92.00;100560.69;7401152;19;19986;-70
2023/12/26 06:06:34;;;;;;;10.32;1.50;;;;;;;8.21;92.62;100581.81;7403782;19;19925;-70
2023/12/26 06:09:02;;;;;;;5.97;1.08;;;;;;;8.24;92.12;100552.97;7404535;19;19910;-70
2023/12/26 06:11:31;;;;;;;7.88;1.35;;;;;;;8.25;92.27;100560.84;7403116;19;19925;-70
2023/12/26 06:14:02;;;;;;;7.55;1.52;;;;;;;8.24;92.04;100574.44;7404074;19;19921;-70
2023/12/26 06:16:31;;;;;;;6.68;1.75;;;;;;;8.25;92.81;100566.22;7404322;19;20260;-70
2023/12/26 06:19:00;;;;;;;6.25;0.98;;;;;;;8.24;92.31;100558.34;7403176;19;19934;-70
2023/12/26 06:21:29;;;;;;;10.57;1.65;;;;;;;8.24;92.50;100569.91;7403773;19;19928;-70
2023/12/26 06:23:58;;;;;;;8.27;1.00;;;;;;;8.23;92.54;100595.06;7403248;19;19934;-70
2023/12/26 06:26:27;;;;;;;6.28;1.15;;;;;;;8.25;93.21;100570.75;7403964;19;20271;-70
2023/12/26 06:28:55;;;;;;;10.07;1.25;;;;;;;8.24;93.02;100598.59;7403681;19;20628;-70
2023/12/26 06:31:27;;;;;;;10.82;1.15;;;;;;;8.27;92.99;100587.53;7403307;19;20359;-70
2023/12/26 06:33:55;;;;;;;5.28;1.00;;;;;;;8.27;93.33;100598.25;7402921;19;19930;-70
2023/12/26 06:36:27;;;;;;;12.10;1.50;;;;;;;8.27;93.75;100598.25;7403081;19;19919;-71
2023/12/26 06:39:00;;;;;;;6.43;1.20;;;;;;;8.26;93.39;100618.03;7403169;19;19922;-70
2023/12/26 06:41:30;;;;;;;4.78;1.85;;;;;;;8.27;93.31;100606.31;7403350;19;19922;-70
2023/12/26 06:43:59;;;;;;;10.70;1.50;;;;;;;8.27;93.63;100617.88;7402960;19;19911;-70
2023/12/26 06:46:30;;;;;;;4.90;1.50;;;;;;;8.29;93.79;100644.53;7403022;19;19926;-70
2023/12/26 06:48:59;;;;;;;6.18;1.65;;;;;;;8.32;93.20;100614.72;7403065;19;19930;-71
2023/12/26 06:51:28;;;;;;;6.38;1.13;;;;;;;8.31;93.11;100632.66;7402139;19;20343;-70
2023/12/26 06:53:56;;;;;;;4.90;1.13;;;;;;;8.31;93.35;100629.16;7403192;19;19918;-70
2023/12/26 06:56:25;;;;;;;9.90;1.27;;;;;;;8.30;92.92;100638.19;7401777;19;19941;-70
2023/12/26 06:58:54;;;;;;;6.95;1.08;;;;;;;8.30;93.26;100660.50;7402992;19;19921;-71
2023/12/26 07:01:23;;;;;;;6.75;1.05;;;;;;;8.32;92.89;100620.94;7402418;19;20371;-70
2023/12/26 07:03:54;;;;;;;6.47;1.23;;;;;;;8.32;92.70;100639.72;7402513;19;19915;-70
2023/12/26 07:06:23;;;;;;;8.25;1.13;;;;;;;8.32;92.71;100646.94;7402202;19;19925;-70
2023/12/26 07:08:52;;;;;;;4.70;1.15;;;;;;;8.32;92.35;100674.63;7403343;19;19933;-70
2023/12/26 07:11:21;;;;;;;9.27;1.40;;;;;;;8.33;92.03;100670.06;7402330;19;19966;-70
2023/12/26 07:13:50;;;;;;;8.65;1.52;;;;;;;8.32;91.88;100650.47;7403142;19;19937;-70
2023/12/26 07:16:19;;;;;;;7.78;1.35;;;;;;;8.35;91.59;100668.06;7402236;19;19914;-70
2023/12/26 07:18:48;;;;;;;8.30;1.15;;;;;;;8.37;91.52;100684.84;7402455;19;19919;-70
2023/12/26 07:21:39;;;;;;;6.70;1.42;;;;;;;8.37;90.45;100677.59;7401441;19;19922;-70
2023/12/26 07:24:09;;;;;;;6.90;1.23;;;;;;;8.37;90.45;100693.72;7401836;19;19925;-70
2023/12/26 07:26:38;;;;;;;6.30;0.90;;;;;;;8.39;90.90;100680.13;7402559;19;19922;-70
2023/12/26 07:29:06;;;;;;;11.98;1.65;;;;;;;8.38;90.71;100697.25;7402363;19;19926;-70
2023/12/26 07:31:35;;;;;;;6.35;1.15;;;;;;;8.38;90.50;100694.56;7402201;19;19930;-70
2023/12/26 07:34:08;;;;;;;9.23;1.52;;;;;;;8.35;90.70;100695.75;7401405;19;19926;-70
2023/12/26 07:36:39;;;;;;;9.75;1.33;;;;;;;8.32;90.63;100712.19;7402241;19;19934;-70
2023/12/26 07:39:11;;;;;;;5.68;1.38;;;;;;;8.30;91.04;100689.19;7401865;19;19926;-70
2023/12/26 07:41:39;;;;;;;9.68;1.58;;;;;;;8.28;90.77;100701.91;7401605;19;19926;-70
2023/12/26 07:44:08;;;;;;;6.75;1.55;;;;;;;8.26;90.94;100720.84;7402125;19;19934;-70
2023/12/26 07:46:37;;;;;;;8.88;1.20;;;;;;;8.25;90.79;100718.34;7400689;19;19918;-70
2023/12/26 07:49:06;;;;;;;6.38;1.50;;;;;;;8.23;90.89;100728.41;7401277;19;19929;-70
2023/12/26 07:51:35;;;;;;;5.35;1.35;;;;;;;8.20;90.89;100737.59;7400896;19;19974;-70
2023/12/26 07:54:06;;;;;;;4.97;0.90;;;;;;;8.19;91.07;100747.53;7402328;19;19925;-70
2023/12/26 07:56:35;;;;;;;9.15;1.40;;;;;;;8.16;91.29;100742.47;7399558;19;19978;-70
2023/12/26 07:59:04;;;;;;;7.90;1.50;;;;;;;8.17;91.04;100749.53;7401862;19;20272;-70
2023/12/26 08:01:33;;;;;;;8.95;1.35;;;;;;;8.16;91.42;100758.56;7400829;19;19910;-70
2023/12/26 08:04:02;;;;;;;7.38;1.65;;;;;;;8.17;91.53;100760.25;7402109;19;19933;-70
2023/12/26 08:06:30;;;;;;;10.93;1.45;;;;;;;8.17;91.33;100773.69;7401637;19;19921;-70
2023/12/26 08:08:59;;;;;;;10.95;1.52;;;;;;;8.20;91.05;100773.34;7401837;19;19914;-70
2023/12/26 08:11:30;;;;;;;10.52;2.15;;;;;;;8.25;91.07;100785.41;7401199;19;19922;-70
2023/12/26 08:13:59;;;;;;;8.00;2.15;;;;;;;8.26;90.78;100798.69;7401882;19;19914;-70
2023/12/26 08:16:28;;;;;;;9.23;1.70;;;;;;;8.29;90.57;100787.66;7400819;19;19929;-70
2023/12/26 08:18:57;;;;;;;8.40;1.67;;;;;;;8.31;90.31;100795.53;7401254;19;19919;-70
2023/12/26 08:21:26;;;;;;;5.93;1.80;;;;;;;8.32;90.83;100803.44;7401656;19;19919;-70
2023/12/26 08:23:54;;;;;;;10.50;1.58;;;;;;;8.34;90.71;100795.22;7400680;19;19919;-70
2023/12/26 08:26:34;;;;;;;9.68;1.73;;;;;;;8.32;89.57;100810.66;7398819;19;20253;-70
2023/12/26 08:29:03;;;;;;;8.18;1.80;;;;;;;8.36;90.45;100833.47;7400760;19;19914;-70
2023/12/26 08:31:32;;;;;;;7.25;1.58;;;;;;;8.36;89.98;100810.16;7400357;19;19950;-70
2023/12/26 08:34:01;;;;;;;7.55;1.48;;;;;;;8.39;90.39;100811.66;7400547;19;19949;-70
2023/12/26 08:36:29;;;;;;;9.23;1.42;;;;;;;8.39;90.14;100814.34;7400933;19;19937;-70
2023/12/26 08:38:58;;;;;;;11.20;2.50;;;;;;;8.40;90.88;100833.00;7399760;19;19924;-70
2023/12/26 08:41:27;;;;;;;11.15;1.83;;;;;;;8.39;90.75;100819.72;7400802;19;20344;-70
2023/12/26 08:43:58;;;;;;;14.25;1.60;;;;;;;8.39;90.85;100819.72;7400066;19;19930;-70
2023/12/26 08:46:27;;;;;;;10.07;1.63;;;;;;;8.41;90.92;100831.16;7400211;19;19919;-70
2023/12/26 08:48:56;;;;;;;14.38;2.22;;;;;;;8.41;90.62;100848.09;7400346;19;19925;-70
2023/12/26 08:51:24;;;;;;;8.73;1.63;;;;;;;8.45;90.97;100837.88;7399823;19;19919;-70
2023/12/26 08:53:54;;;;;;;11.32;1.52;;;;;;;8.46;91.04;100858.31;7400281;19;20014;-70
2023/12/26 08:56:24;;;;;;;4.60;1.17;;;;;;;8.46;90.83;100861.00;7399222;19;19989;-70
2023/12/26 08:58:53;;;;;;;10.43;2.13;;;;;;;8.45;90.69;100849.44;7400096;19;19919;-70
2023/12/26 09:01:25;;;;;;;11.07;1.52;;;;;;;8.43;90.68;100878.28;7399549;19;19932;-70
2023/12/26 09:03:53;;;;;;;8.18;1.50;;;;;;;8.43;90.68;100866.69;7399751;19;19939;-70
2023/12/26 09:06:22;;;;;;;8.43;1.15;;;;;;;8.39;90.84;100887.66;7398782;19;20462;-70
2023/12/26 09:08:51;;;;;;;5.72;1.20;;;;;;;8.35;90.84;100888.16;7399547;19;19922;-70
2023/12/26 09:11:39;;;;;;;6.72;1.38;;;;;;;8.32;90.74;100875.06;7398045;19;19919;-70
2023/12/26 09:14:08;;;;;;;17.25;2.05;;;;;;;8.30;90.35;100885.94;7398677;19;19923;-70
2023/12/26 09:16:59;;;;;;;7.43;1.95;;;;;;;8.30;90.21;100903.91;7397937;19;19985;-71
2023/12/26 09:19:28;;;;;;;9.60;1.48;;;;;;;8.29;90.26;100886.94;7399266;19;19918;-70
2023/12/26 09:21:57;;;;;;;8.95;1.73;;;;;;;8.30;90.20;100904.75;7399547;19;19945;-70
2023/12/26 09:24:26;;;;;;;8.10;1.63;;;;;;;8.33;90.35;100906.25;7398522;19;19918;-70
2023/12/26 09:26:55;;;;;;;7.70;1.27;;;;;;;8.36;89.59;100914.84;7398775;19;19919;-69
2023/12/26 09:29:24;;;;;;;7.90;1.35;;;;;;;8.40;90.16;100926.09;7398096;19;19922;-69
2023/12/26 09:31:54;;;;;;;11.95;1.98;;;;;;;8.42;90.23;100926.75;7398344;19;19928;-69
2023/12/26 09:34:25;;;;;;;13.85;2.90;;;;;;;8.44;90.27;100943.56;7398465;19;20352;-70
2023/12/26 09:36:54;;;;;;;9.68;1.67;;;;;;;8.45;90.17;100937.19;7397802;19;20519;-70
2023/12/26 09:39:23;;;;;;;8.43;1.60;;;;;;;8.45;89.91;100942.56;7401984;19;19942;-70
2023/12/26 09:41:55;;;;;;;14.30;1.70;;;;;;;8.49;89.32;100947.44;7403479;19;19971;-70
2023/12/26 09:44:24;;;;;;;8.80;2.40;;;;;;;8.50;89.25;100953.66;7404391;19;19918;-70
2023/12/26 09:46:53;;;;;;;8.88;1.48;;;;;;;8.52;89.72;100955.16;7403689;19;19915;-70
2023/12/26 09:49:24;;;;;;;6.20;2.03;;;;;;;8.52;88.97;100991.91;7404020;19;19943;-70
2023/12/26 09:51:55;;;;;;;9.90;1.27;;;;;;;8.52;88.91;100975.81;7403739;19;20371;-70
2023/12/26 09:54:26;;;;;;;12.98;1.40;;;;;;;8.51;88.73;100980.34;7404396;19;19919;-70
2023/12/26 09:56:55;;;;;;;8.95;1.52;;;;;;;8.53;89.02;101001.66;7403617;19;19945;-70
2023/12/26 09:59:28;;;;;;;10.45;1.65;;;;;;;8.53;88.76;100980.19;7403355;19;19917;-70
2023/12/26 10:01:57;;;;;;;11.45;1.52;;;;;;;8.52;89.15;100984.72;7403613;19;20356;-70
2023/12/26 10:04:28;;;;;;;14.55;2.03;;;;;;;8.52;88.40;100986.53;7402900;19;19919;-70
2023/12/26 10:06:57;;;;;;;9.05;1.70;;;;;;;8.52;88.32;100992.75;7404990;19;19918;-70
2023/12/26 10:09:25;;;;;;;6.28;1.65;;;;;;;8.53;88.34;101017.78;7402696;19;19922;-69
2023/12/26 10:11:55;;;;;;;7.70;1.77;;;;;;;8.53;87.51;100991.75;7404027;19;19923;-70
2023/12/26 10:14:30;;;;;;;9.40;1.30;;;;;;;8.55;88.08;101005.84;7402726;19;19918;-70
2023/12/26 10:16:59;;;;;;;9.82;1.88;;;;;;;8.55;87.67;101010.38;7403351;19;19926;-70
2023/12/26 10:19:31;;;;;;;9.55;1.55;;;;;;;8.56;87.79;101006.69;7403046;19;19919;-70
2023/12/26 10:21:59;;;;;;;11.77;1.67;;;;;;;8.55;87.88;101005.84;7404116;19;20344;-70
2023/12/26 10:24:28;;;;;;;7.47;1.20;;;;;;;8.55;87.63;101039.91;7403354;19;19927;-70
2023/12/26 10:26:58;;;;;;;6.75;1.10;;;;;;;8.56;86.47;101020.97;7403081;19;20271;-70
2023/12/26 10:29:27;;;;;;;10.45;1.88;;;;;;;8.61;86.77;101001.69;7403832;19;19925;-70
2023/12/26 10:32:15;;;;;;;5.97;1.20;;;;;;;8.65;86.82;101029.91;7401954;19;20379;-70
2023/12/26 10:34:47;;;;;;;8.85;1.50;;;;;;;8.65;85.70;101056.75;7403200;19;19953;-70
2023/12/26 10:37:15;;;;;;;9.40;1.45;;;;;;;8.72;85.81;101022.03;7403221;19;19921;-70
2023/12/26 10:39:44;;;;;;;4.45;1.17;;;;;;;8.74;85.59;101025.41;7403932;19;19919;-70
2023/12/26 10:42:14;;;;;;;6.13;1.25;;;;;;;8.79;85.88;101032.00;7402587;19;19922;-70
2023/12/26 10:45:03;;;;;;;12.73;1.50;;;;;;;8.79;84.88;101029.31;7403363;19;19915;-70
2023/12/26 10:47:32;;;;;;;11.32;1.75;;;;;;;8.84;84.98;101034.19;7403797;19;19923;-70
2023/12/26 10:50:08;;;;;;;9.05;1.88;;;;;;;8.84;84.52;101035.03;7401748;19;20601;-70
2023/12/26 10:52:42;;;;;;;6.40;1.65;;;;;;;8.87;85.13;101029.34;7402309;19;19918;-70
2023/12/26 10:55:18;;;;;;;10.25;2.00;;;;;;;8.89;85.36;101026.47;7402310;19;20379;-70
2023/12/26 10:57:47;;;;;;;9.98;1.70;;;;;;;8.91;85.00;101043.28;7402871;19;19930;-70
2023/12/26 13:52:54;;;;;;;3.20;0.55;;;;;;;7.64;99.13;101354.94;7404024;19;19925;-71
2023/12/26 13:55:23;;;;;;;2.75;0.95;;;;;;;7.46;99.14;101314.69;7404244;19;19938;-70
2023/12/26 13:57:49;;;;;;;5.85;1.27;;;;;;;7.40;99.48;101325.97;7404208;19;19922;-71
2023/12/26 14:00:18;;;;;;;3.70;1.20;;;;;;;7.37;98.70;101326.28;7403490;19;19915;-70
2023/12/26 14:02:44;;;;;;;3.78;1.50;;;;;;;7.37;98.25;101328.09;7403751;19;19922;-70
2023/12/26 14:05:13;;;;;;;1.77;0.43;;;;;;;7.46;97.07;101325.41;7403762;19;19966;-70
2023/12/26 14:07:46;;;;;;;1.90;0.40;;;;;;;7.59;95.86;101347.34;7403157;19;19915;-70
2023/12/26 14:10:18;;;;;;;2.00;0.70;;;;;;;7.65;95.56;101345.91;7403976;19;19921;-70
2023/12/26 14:12:47;;;;;;;2.80;1.13;;;;;;;7.65;94.65;101368.22;7403066;19;19919;-70
2023/12/26 14:15:16;;;;;;;4.32;1.73;;;;;;;7.67;94.57;101378.81;7403912;19;20344;-71
2023/12/26 14:17:45;;;;;;;5.55;1.42;;;;;;;7.69;95.06;101393.75;7402752;19;19919;-70
2023/12/26 14:20:13;;;;;;;5.45;1.10;;;;;;;7.53;99.09;101401.56;7403343;19;19924;-71
2023/12/26 14:22:44;;;;;;;4.72;1.02;;;;;;;7.37;100.00;101393.28;7402676;19;19928;-71
2023/12/26 14:25:13;;;;;;;3.85;1.05;;;;;;;7.20;100.00;101394.00;7402057;19;19926;-71
2023/12/26 14:27:45;;;;;;;5.65;1.38;;;;;;;7.10;100.00;101393.16;7402860;19;19942;-70
2023/12/26 14:30:14;;;;;;;5.85;1.15;;;;;;;7.03;100.00;101400.06;7403293;19;19939;-71
2023/12/26 14:32:43;;;;;;;3.65;0.60;;;;;;;7.02;100.00;101411.78;7402932;19;19918;-71
2023/12/26 14:35:12;;;;;;;2.90;0.75;;;;;;;7.00;100.00;101416.41;7403533;19;19923;-71